Time;durP1;ratioP1;P1;durP2;ratioP2;P2;SDS_P1;SDS_P2;PMS_P1;PMS_P2;Temp;Humidity;BMP_temperature;BMP_pressure;BME280_temperature;BME280_humidity;BME280_pressure;Samples;Min_cycle;Max_cycle;Signal;HPM_P1;HPM_P2
2022/10/17 00:02:08;;;;;;;;;;;13.00;99.90;;;;;;5033933;28;19909;-67
2022/10/17 00:04:33;;;;;;;;;;;13.00;99.90;;;;;;5033682;28;19996;-67
2022/10/17 00:06:59;;;;;;;;;;;13.00;99.90;;;;;;5033588;28;19909;-67
2022/10/17 00:09:24;;;;;;;;;;;12.90;99.90;;;;;;5033550;28;19932;-67
2022/10/17 00:11:49;;;;;;;;;;;12.90;99.90;;;;;;5032315;28;19960;-67
2022/10/17 00:14:15;;;;;;;;;;;12.90;99.90;;;;;;5033466;28;19917;-67
2022/10/17 00:16:40;;;;;;;;;;;12.90;99.90;;;;;;5033332;28;20049;-67
2022/10/17 00:19:06;;;;;;;;;;;12.90;99.90;;;;;;5033430;28;20381;-67
2022/10/17 00:21:32;;;;;;;;;;;12.80;99.90;;;;;;5033590;28;19909;-67
2022/10/17 00:23:58;;;;;;;;;;;12.80;99.90;;;;;;5033345;28;19993;-67
2022/10/17 00:26:23;;;;;;;;;;;12.80;99.90;;;;;;5033213;28;19913;-67
2022/10/17 00:28:50;;;;;;;;;;;12.90;99.90;;;;;;5033502;28;20001;-67
2022/10/17 00:31:16;;;;;;;;;;;12.80;99.90;;;;;;5033213;28;19910;-67
2022/10/17 00:33:42;;;;;;;;;;;12.80;99.90;;;;;;5033367;28;19945;-67
2022/10/17 00:36:12;;;;;;;;;;;12.80;99.90;;;;;;5033294;28;19909;-67
2022/10/17 00:38:38;;;;;;;;;;;12.80;99.90;;;;;;5033347;28;20373;-67
2022/10/17 00:41:03;;;;;;;;;;;12.80;99.90;;;;;;5033041;28;19913;-68
2022/10/17 00:43:47;;;;;;;;;;;12.80;99.90;;;;;;5033319;28;19909;-67
2022/10/17 00:46:12;;;;;;;;;;;12.80;99.90;;;;;;5032953;28;19915;-67
2022/10/17 00:48:38;;;;;;;;;;;13.00;99.90;;;;;;5032461;28;19909;-67
2022/10/17 00:51:04;;;;;;;;;;;12.90;99.90;;;;;;5033183;28;19909;-67
2022/10/17 00:53:29;;;;;;;;;;;13.00;99.90;;;;;;5032896;28;19952;-67
2022/10/17 00:55:55;;;;;;;;;;;12.90;99.90;;;;;;5032827;28;19956;-67
2022/10/17 00:58:20;;;;;;;;;;;12.90;99.90;;;;;;5032846;28;19975;-67
2022/10/17 01:00:47;;;;;;;;;;;12.90;99.90;;;;;;5031540;28;19909;-66
2022/10/17 01:03:12;;;;;;;;;;;12.90;99.90;;;;;;5032746;28;19909;-67
2022/10/17 01:05:40;;;;;;;;;;;12.90;99.90;;;;;;5033028;28;20000;-67
2022/10/17 01:08:06;;;;;;;;;;;12.90;99.90;;;;;;5032644;28;19909;-67
2022/10/17 01:10:37;;;;;;;;;;;12.90;99.90;;;;;;5032634;28;20362;-67
2022/10/17 01:13:09;;;;;;;;;;;12.90;99.90;;;;;;5032603;28;19940;-67
2022/10/17 01:15:40;;;;;;;;;;;12.90;99.90;;;;;;5032419;28;19962;-66
2022/10/17 01:18:12;;;;;;;;;;;12.90;99.90;;;;;;5032448;28;19917;-67
2022/10/17 01:20:58;;;;;;;;;;;12.90;99.90;;;;;;5031286;28;20286;-67
2022/10/17 01:23:43;;;;;;;;;;;12.90;99.90;;;;;;5032287;28;19913;-67
2022/10/17 01:26:18;;;;;;;;;;;13.00;99.90;;;;;;5032303;28;20296;-67
2022/10/17 01:28:55;;;;;;;;;;;13.00;99.90;;;;;;5031171;28;19917;-66
2022/10/17 01:31:22;;;;;;;;;;;13.00;99.90;;;;;;5031100;28;19954;-66
2022/10/17 01:34:07;;;;;;;;;;;13.00;99.90;;;;;;5032525;28;20358;-66
2022/10/17 01:36:53;;;;;;;;;;;13.00;99.90;;;;;;5032146;28;19917;-66
2022/10/17 01:39:23;;;;;;;;;;;13.00;99.90;;;;;;5032115;28;19909;-67
2022/10/17 01:41:56;;;;;;;;;;;13.00;99.90;;;;;;5032462;28;20393;-67
2022/10/17 01:44:27;;;;;;;;;;;13.00;99.90;;;;;;5032198;28;19913;-66
2022/10/17 01:46:57;;;;;;;;;;;13.00;99.90;;;;;;5032091;28;19913;-67
2022/10/17 01:49:24;;;;;;;;;;;13.00;99.90;;;;;;5032069;28;19909;-67
2022/10/17 01:51:52;;;;;;;;;;;13.00;99.90;;;;;;5031964;28;20023;-67
2022/10/17 01:54:21;;;;;;;;;;;13.00;99.90;;;;;;5031983;28;19959;-66
2022/10/17 01:56:47;;;;;;;;;;;13.00;99.90;;;;;;5031835;28;20388;-67
2022/10/17 01:59:19;;;;;;;;;;;13.00;99.90;;;;;;5032150;28;20012;-67
2022/10/17 02:01:49;;;;;;;;;;;13.00;99.90;;;;;;5030863;28;19909;-66
2022/10/17 02:04:15;;;;;;;;;;;12.90;99.90;;;;;;5032054;28;19909;-66
2022/10/17 02:06:40;;;;;;;;;;;13.00;99.90;;;;;;5032019;28;19916;-67
2022/10/17 02:09:22;;;;;;;;;;;13.00;99.90;;;;;;5031988;28;19909;-67
2022/10/17 02:12:02;;;;;;;;;;;13.00;99.90;;;;;;5031927;28;20378;-67
2022/10/17 02:14:40;;;;;;;;;;;13.00;99.90;;;;;;5031969;28;19909;-67
2022/10/17 02:19:53;;;;;;;;;;;13.10;99.90;;;;;;5144617;27;20041;-67
2022/10/17 02:22:31;;;;;;;;;;;13.00;99.90;;;;;;5111566;28;19919;-66
2022/10/17 02:25:02;;;;;;;;;;;13.00;99.90;;;;;;5111772;28;20387;-66
2022/10/17 02:30:40;;;;;;;;;;;13.00;99.90;;;;;;5109700;27;19914;-67
2022/10/17 02:33:08;;;;;;;;;;;13.00;99.90;;;;;;5008328;28;20286;-66
2022/10/17 02:35:36;;;;;;;;;;;12.90;99.90;;;;;;5008150;28;19910;-66
2022/10/17 02:38:03;;;;;;;;;;;12.90;99.90;;;;;;5007778;28;19914;-66
2022/10/17 02:40:30;;;;;;;;;;;13.00;99.90;;;;;;5008074;28;20355;-66
2022/10/17 02:42:57;;;;;;;;;;;13.00;99.90;;;;;;5008010;28;19910;-66
2022/10/17 02:45:24;;;;;;;;;;;13.10;99.90;;;;;;5075698;28;19910;-66
2022/10/17 02:47:55;;;;;;;;;;;13.10;99.90;;;;;;5007766;28;19910;-66
2022/10/17 02:50:23;;;;;;;;;;;13.10;99.90;;;;;;5007981;28;19920;-66
2022/10/17 02:52:51;;;;;;;;;;;13.10;99.90;;;;;;5007853;28;20002;-66
2022/10/17 02:57:59;;;;;;;;;;;13.10;99.90;;;;;;5144544;27;19912;-67
2022/10/17 03:00:25;;;;;;;;;;;13.10;99.90;;;;;;5111854;28;19912;-66
2022/10/17 03:02:51;;;;;;;;;;;13.00;99.90;;;;;;5111498;28;19959;-66
2022/10/17 03:05:19;;;;;;;;;;;13.00;99.90;;;;;;5111746;28;19912;-67
2022/10/17 03:07:45;;;;;;;;;;;13.00;99.90;;;;;;5111760;28;19991;-66
2022/10/17 03:10:11;;;;;;;;;;;13.00;99.90;;;;;;5111377;28;19943;-66
2022/10/17 03:12:36;;;;;;;;;;;12.90;99.90;;;;;;5111337;28;19912;-66
2022/10/17 03:15:02;;;;;;;;;;;12.90;99.90;;;;;;5111294;28;19908;-66
2022/10/17 03:17:27;;;;;;;;;;;12.90;99.90;;;;;;5111214;28;19912;-67
2022/10/17 03:19:53;;;;;;;;;;;12.80;99.90;;;;;;5110131;28;19999;-66
2022/10/17 03:22:18;;;;;;;;;;;12.80;99.90;;;;;;5111113;28;20301;-66
2022/10/17 03:24:44;;;;;;;;;;;12.80;99.90;;;;;;5111136;28;19908;-66
2022/10/17 03:27:10;;;;;;;;;;;12.80;99.90;;;;;;5111035;28;19995;-66
2022/10/17 03:29:35;;;;;;;;;;;12.80;99.90;;;;;;5111083;28;19915;-66
2022/10/17 03:32:00;;;;;;;;;;;12.80;99.90;;;;;;5110949;28;19908;-66
2022/10/17 03:34:26;;;;;;;;;;;12.80;99.90;;;;;;5111194;28;19919;-66
2022/10/17 03:36:51;;;;;;;;;;;12.80;99.90;;;;;;5109539;28;20010;-66
2022/10/17 03:39:17;;;;;;;;;;;13.00;99.90;;;;;;5110830;28;19912;-66
2022/10/17 03:41:42;;;;;;;;;;;13.00;99.90;;;;;;5110816;28;20422;-67
2022/10/17 03:44:08;;;;;;;;;;;13.10;99.90;;;;;;5110730;28;19908;-67
2022/10/17 03:46:33;;;;;;;;;;;13.10;99.90;;;;;;5110894;28;19908;-67
2022/10/17 03:48:59;;;;;;;;;;;13.10;99.90;;;;;;5110939;28;19908;-66
2022/10/17 03:51:24;;;;;;;;;;;13.20;99.90;;;;;;5110981;28;19908;-66
2022/10/17 03:53:50;;;;;;;;;;;13.10;99.90;;;;;;5110526;28;20273;-66
2022/10/17 03:56:17;;;;;;;;;;;13.10;99.90;;;;;;5110385;28;19926;-66
2022/10/17 03:58:43;;;;;;;;;;;13.10;99.90;;;;;;5110472;28;19916;-67
2022/10/17 04:01:10;;;;;;;;;;;13.10;99.90;;;;;;5110683;28;20006;-66
2022/10/17 04:03:35;;;;;;;;;;;13.00;99.90;;;;;;5110357;28;19908;-66
2022/10/17 04:06:01;;;;;;;;;;;13.00;99.90;;;;;;5110551;28;19916;-66
2022/10/17 04:08:27;;;;;;;;;;;13.00;99.90;;;;;;5101281;28;19912;-67
2022/10/17 04:10:57;;;;;;;;;;;13.00;99.90;;;;;;5096969;28;20359;-66
2022/10/17 04:13:22;;;;;;;;;;;13.00;99.90;;;;;;5096883;28;19908;-66
2022/10/17 04:15:56;;;;;;;;;;;13.00;99.90;;;;;;5096491;28;19919;-66
2022/10/17 04:18:21;;;;;;;;;;;13.00;99.90;;;;;;5096811;28;20378;-66
2022/10/17 04:20:47;;;;;;;;;;;13.10;99.90;;;;;;5096412;28;19938;-66
2022/10/17 04:23:12;;;;;;;;;;;13.10;99.90;;;;;;5096381;28;20027;-66
2022/10/17 04:25:38;;;;;;;;;;;13.00;99.90;;;;;;5096314;28;19915;-66
2022/10/17 04:28:03;;;;;;;;;;;13.00;99.90;;;;;;5096289;28;19962;-66
2022/10/17 04:30:29;;;;;;;;;;;13.00;99.90;;;;;;5096302;28;20002;-66
2022/10/17 04:32:54;;;;;;;;;;;13.10;99.90;;;;;;5096470;28;19908;-67
2022/10/17 04:35:20;;;;;;;;;;;13.10;99.90;;;;;;5096445;28;19909;-66
2022/10/17 04:37:45;;;;;;;;;;;13.00;99.90;;;;;;5096061;28;20381;-67
2022/10/17 04:40:10;;;;;;;;;;;13.00;99.90;;;;;;5096337;28;19915;-66
2022/10/17 04:42:36;;;;;;;;;;;13.00;99.90;;;;;;5095987;28;19912;-66
2022/10/17 04:45:02;;;;;;;;;;;13.00;99.90;;;;;;5096195;28;19916;-66
2022/10/17 04:47:27;;;;;;;;;;;12.90;99.90;;;;;;5095996;28;19915;-66
2022/10/17 04:49:53;;;;;;;;;;;12.90;99.90;;;;;;5095971;28;19915;-66
2022/10/17 04:52:18;;;;;;;;;;;13.00;99.90;;;;;;5095824;28;19908;-67
2022/10/17 04:54:44;;;;;;;;;;;13.00;99.90;;;;;;5096089;28;19961;-66
2022/10/17 04:57:09;;;;;;;;;;;13.10;99.90;;;;;;5095591;28;19920;-67
2022/10/17 04:59:35;;;;;;;;;;;13.10;99.90;;;;;;5095717;28;19969;-66
2022/10/17 05:02:00;;;;;;;;;;;13.20;99.90;;;;;;5095936;28;20346;-66
2022/10/17 05:04:26;;;;;;;;;;;13.30;99.90;;;;;;5095640;28;20010;-66
2022/10/17 05:06:51;;;;;;;;;;;13.30;99.90;;;;;;5095835;28;19908;-66
2022/10/17 05:09:17;;;;;;;;;;;13.30;99.90;;;;;;5095522;28;20273;-66
2022/10/17 05:11:42;;;;;;;;;;;13.40;99.90;;;;;;5094129;28;20270;-66
2022/10/17 05:14:08;;;;;;;;;;;13.40;99.90;;;;;;5095595;28;19972;-66
2022/10/17 05:16:34;;;;;;;;;;;13.50;99.90;;;;;;5095275;28;19919;-66
2022/10/17 05:19:00;;;;;;;;;;;13.50;99.90;;;;;;5094755;28;19908;-66
2022/10/17 05:21:26;;;;;;;;;;;13.60;99.90;;;;;;5094830;28;19995;-66
2022/10/17 05:23:52;;;;;;;;;;;13.60;99.90;;;;;;5095271;28;19912;-66
2022/10/17 05:26:18;;;;;;;;;;;13.70;99.90;;;;;;5093848;28;19953;-66
2022/10/17 05:28:43;;;;;;;;;;;13.70;99.90;;;;;;5095390;28;20007;-67
2022/10/17 05:31:09;;;;;;;;;;;13.60;99.90;;;;;;5095088;28;19908;-67
2022/10/17 05:33:35;;;;;;;;;;;13.60;99.90;;;;;;5095275;28;19908;-67
2022/10/17 05:36:01;;;;;;;;;;;13.50;99.90;;;;;;5094896;28;19916;-66
2022/10/17 05:38:26;;;;;;;;;;;13.50;99.90;;;;;;5095235;28;20373;-67
2022/10/17 05:41:00;;;;;;;;;;;13.50;99.90;;;;;;5094851;28;19914;-66
2022/10/17 05:43:25;;;;;;;;;;;13.50;99.90;;;;;;5095136;28;20446;-66
2022/10/17 05:45:51;;;;;;;;;;;13.40;99.90;;;;;;5094776;28;19912;-66
2022/10/17 05:48:16;;;;;;;;;;;13.40;99.90;;;;;;5094784;28;20340;-66
2022/10/17 05:50:43;;;;;;;;;;;13.30;99.90;;;;;;5094643;28;19912;-66
2022/10/17 05:53:08;;;;;;;;;;;13.30;99.90;;;;;;5094616;28;19933;-66
2022/10/17 05:55:34;;;;;;;;;;;13.20;99.90;;;;;;5097581;28;20393;-67
2022/10/17 05:58:00;;;;;;;;;;;13.20;99.90;;;;;;5107639;28;19927;-66
2022/10/17 06:00:25;;;;;;;;;;;13.20;99.90;;;;;;5081080;27;19919;-66
2022/10/17 06:02:51;;;;;;;;;;;13.10;99.90;;;;;;5084692;28;20400;-67
2022/10/17 06:05:16;;;;;;;;;;;13.20;99.90;;;;;;5076847;28;19916;-66
2022/10/17 06:07:42;;;;;;;;;;;13.20;99.90;;;;;;5088407;28;19934;-66
2022/10/17 06:10:08;;;;;;;;;;;13.20;99.90;;;;;;5083423;28;20365;-66
2022/10/17 06:12:33;;;;;;;;;;;13.20;99.90;;;;;;5083844;28;19957;-66
2022/10/17 06:14:59;;;;;;;;;;;13.30;99.90;;;;;;5089208;28;20005;-66
2022/10/17 06:17:24;;;;;;;;;;;13.40;99.90;;;;;;5092464;28;19916;-66
2022/10/17 06:19:49;;;;;;;;;;;13.40;99.90;;;;;;5092717;28;19912;-66
2022/10/17 06:22:15;;;;;;;;;;;13.40;99.90;;;;;;5090795;28;20361;-66
2022/10/17 06:24:41;;;;;;;;;;;13.50;99.90;;;;;;5087644;28;19947;-66
2022/10/17 06:27:07;;;;;;;;;;;13.60;99.90;;;;;;5093699;28;20400;-67
2022/10/17 06:29:32;;;;;;;;;;;13.80;99.90;;;;;;5091752;28;19919;-66
2022/10/17 06:31:58;;;;;;;;;;;13.80;99.90;;;;;;5089224;28;19915;-67
2022/10/17 06:34:23;;;;;;;;;;;13.90;99.90;;;;;;5120621;27;19919;-67
2022/10/17 06:36:49;;;;;;;;;;;13.90;99.90;;;;;;5093274;28;19923;-67
2022/10/17 06:39:14;;;;;;;;;;;14.10;99.90;;;;;;5088645;28;19968;-67
2022/10/17 06:41:40;;;;;;;;;;;14.30;99.90;;;;;;5093141;28;19909;-67
2022/10/17 06:44:10;;;;;;;;;;;14.30;99.90;;;;;;5084657;28;20396;-67
2022/10/17 06:46:36;;;;;;;;;;;14.40;99.90;;;;;;5086319;28;19908;-67
2022/10/17 06:49:03;;;;;;;;;;;14.50;99.90;;;;;;5091783;28;19918;-67
2022/10/17 06:51:30;;;;;;;;;;;14.60;99.90;;;;;;5092702;28;19955;-67
2022/10/17 06:53:56;;;;;;;;;;;14.60;99.90;;;;;;5087554;28;19934;-67
2022/10/17 06:56:22;;;;;;;;;;;14.70;99.90;;;;;;5092466;28;20015;-66
2022/10/17 06:58:49;;;;;;;;;;;14.80;99.90;;;;;;5092606;28;19978;-66
2022/10/17 07:01:15;;;;;;;;;;;14.80;99.90;;;;;;5091834;28;20277;-66
2022/10/17 07:03:40;;;;;;;;;;;14.90;99.90;;;;;;5091706;28;19916;-67
2022/10/17 07:06:06;;;;;;;;;;;15.00;99.90;;;;;;5093623;28;20014;-66
2022/10/17 07:08:31;;;;;;;;;;;15.20;99.90;;;;;;5089808;28;19959;-67
2022/10/17 07:10:57;;;;;;;;;;;15.30;99.90;;;;;;5092170;28;19951;-66
2022/10/17 07:13:23;;;;;;;;;;;15.50;99.90;;;;;;5083315;28;19913;-68
2022/10/17 07:15:48;;;;;;;;;;;15.70;99.90;;;;;;5081639;28;19932;-67
2022/10/17 07:18:14;;;;;;;;;;;15.90;99.90;;;;;;5086160;28;19916;-65
2022/10/17 07:20:39;;;;;;;;;;;16.10;99.90;;;;;;5083869;28;19909;-67
2022/10/17 07:23:05;;;;;;;;;;;16.20;99.90;;;;;;5087372;28;19912;-67
2022/10/17 07:25:30;;;;;;;;;;;16.50;99.90;;;;;;5092812;28;19923;-70
2022/10/17 07:27:56;;;;;;;;;;;16.60;99.90;;;;;;5092226;28;19969;-69
2022/10/17 07:30:21;;;;;;;;;;;17.10;99.90;;;;;;5085091;28;19928;-66
2022/10/17 07:32:47;;;;;;;;;;;17.50;99.90;;;;;;5077251;28;19923;-69
2022/10/17 07:35:13;;;;;;;;;;;17.90;99.90;;;;;;5084872;28;20281;-68
2022/10/17 07:37:38;;;;;;;;;;;18.20;99.90;;;;;;5092131;28;19912;-67
2022/10/17 07:40:05;;;;;;;;;;;18.50;99.90;;;;;;5078690;28;19923;-66
2022/10/17 07:42:31;;;;;;;;;;;18.70;99.90;;;;;;5086359;28;19965;-67
2022/10/17 07:44:57;;;;;;;;;;;18.80;99.90;;;;;;5083886;28;20026;-66
2022/10/17 07:47:23;;;;;;;;;;;19.00;99.90;;;;;;5093585;28;20471;-66
2022/10/17 07:49:48;;;;;;;;;;;19.20;99.90;;;;;;5095183;28;20430;-66
2022/10/17 07:52:14;;;;;;;;;;;19.60;99.90;;;;;;5095260;28;19912;-67
2022/10/17 07:54:40;;;;;;;;;;;20.00;99.90;;;;;;5083717;28;20354;-67
2022/10/17 07:57:06;;;;;;;;;;;20.60;99.90;;;;;;5086961;28;20011;-68
2022/10/17 07:59:32;;;;;;;;;;;21.20;99.90;;;;;;5086099;28;19962;-67
2022/10/17 08:01:58;;;;;;;;;;;21.50;99.90;;;;;;5095596;28;19969;-66
2022/10/17 08:04:24;;;;;;;;;;;22.00;99.90;;;;;;5085168;28;19912;-67
2022/10/17 08:06:49;;;;;;;;;;;22.60;99.90;;;;;;5094580;28;19919;-67
2022/10/17 08:09:15;;;;;;;;;;;23.10;99.90;;;;;;5093571;28;20019;-67
2022/10/17 08:11:42;;;;;;;;;;;23.30;99.90;;;;;;5091206;28;20460;-68
2022/10/17 08:14:08;;;;;;;;;;;23.20;99.90;;;;;;5097163;28;20003;-67
2022/10/17 08:16:34;;;;;;;;;;;23.50;99.90;;;;;;5091382;28;20007;-67
2022/10/17 08:18:59;;;;;;;;;;;24.30;99.90;;;;;;5093761;28;20460;-67
2022/10/17 08:21:25;;;;;;;;;;;24.20;99.90;;;;;;5084816;28;19926;-67
2022/10/17 08:23:50;;;;;;;;;;;23.90;99.90;;;;;;5090931;28;19912;-67
2022/10/17 08:26:16;;;;;;;;;;;23.50;99.90;;;;;;5093302;28;19970;-67
2022/10/17 08:28:41;;;;;;;;;;;23.40;99.90;;;;;;5083336;28;19913;-71
2022/10/17 08:31:08;;;;;;;;;;;22.80;99.90;;;;;;5092947;28;19912;-66
2022/10/17 08:33:34;;;;;;;;;;;22.40;99.90;;;;;;5084233;28;19943;-70
2022/10/17 08:36:00;;;;;;;;;;;21.90;99.90;;;;;;5076570;28;20016;-70
2022/10/17 08:38:27;;;;;;;;;;;21.40;99.90;;;;;;5090479;28;20416;-69
2022/10/17 08:40:53;;;;;;;;;;;21.40;99.90;;;;;;5079319;28;19913;-70
2022/10/17 08:43:27;;;;;;;;;;;21.30;99.90;;;;;;5092229;28;19919;-71
2022/10/17 08:45:59;;;;;;;;;;;21.30;99.90;;;;;;5096322;28;19912;-73
2022/10/17 08:48:25;;;;;;;;;;;21.30;99.90;;;;;;5087066;28;19912;-73
2022/10/17 08:50:53;;;;;;;;;;;21.50;99.90;;;;;;5087072;28;20326;-71
2022/10/17 08:53:21;;;;;;;;;;;22.00;99.90;;;;;;5084478;28;19995;-71
2022/10/17 08:55:48;;;;;;;;;;;22.30;99.90;;;;;;5093047;28;19916;-67
2022/10/17 08:58:22;;;;;;;;;;;23.00;99.90;;;;;;5094018;28;19912;-66
2022/10/17 09:00:56;;;;;;;;;;;23.50;99.90;;;;;;5082860;28;19909;-67
2022/10/17 09:03:29;;;;;;;;;;;24.00;99.90;;;;;;5099073;28;19943;-67
2022/10/17 09:06:01;;;;;;;;;;;24.10;99.90;;;;;;5082507;28;20293;-67
2022/10/17 09:08:38;;;;;;;;;;;23.90;99.90;;;;;;5099402;28;19927;-67
2022/10/17 09:11:10;;;;;;;;;;;23.90;99.90;;;;;;5085971;28;19995;-66
2022/10/17 09:13:41;;;;;;;;;;;23.80;99.90;;;;;;5083058;28;20385;-68
2022/10/17 09:16:28;;;;;;;;;;;24.10;99.90;;;;;;5084274;28;20379;-68
2022/10/17 09:18:58;;;;;;;;;;;24.10;99.90;;;;;;5091119;28;20424;-67
2022/10/17 09:21:44;;;;;;;;;;;24.30;99.90;;;;;;5097083;28;20002;-67
2022/10/17 09:24:14;;;;;;;;;;;24.30;99.90;;;;;;5092716;28;20436;-68
2022/10/17 09:26:40;;;;;;;;;;;24.20;99.90;;;;;;5090813;28;19972;-70
2022/10/17 09:29:13;;;;;;;;;;;23.60;99.90;;;;;;5083913;28;19912;-72
2022/10/17 09:31:41;;;;;;;;;;;23.30;99.90;;;;;;5109262;27;19909;-72
2022/10/17 09:34:08;;;;;;;;;;;23.10;99.90;;;;;;5081824;28;19912;-71
2022/10/17 09:36:37;;;;;;;;;;;23.50;99.90;;;;;;5091202;28;19919;-73
2022/10/17 09:39:06;;;;;;;;;;;23.40;99.90;;;;;;5086009;28;20412;-71
2022/10/17 09:41:35;;;;;;;;;;;23.50;99.90;;;;;;5080877;28;20365;-70
2022/10/17 09:44:16;;;;;;;;;;;23.50;99.90;;;;;;5092249;28;19920;-72
2022/10/17 09:46:44;;;;;;;;;;;23.30;99.90;;;;;;5089837;28;20289;-70
2022/10/17 09:49:13;;;;;;;;;;;23.00;99.90;;;;;;5086307;28;20396;-68
2022/10/17 09:51:39;;;;;;;;;;;23.00;99.90;;;;;;5090580;28;19912;-68
2022/10/17 09:54:16;;;;;;;;;;;23.30;99.90;;;;;;5083810;28;20041;-69
2022/10/17 09:57:02;;;;;;;;;;;23.70;99.90;;;;;;5092328;28;20404;-71
2022/10/17 09:59:29;;;;;;;;;;;23.30;99.90;;;;;;5087035;28;19916;-71
2022/10/17 10:02:06;;;;;;;;;;;23.40;99.90;;;;;;5081660;28;19912;-74
2022/10/17 10:04:31;;;;;;;;;;;23.10;99.90;;;;;;5096973;28;20385;-72
2022/10/17 10:07:01;;;;;;;;;;;22.80;99.90;;;;;;5085377;28;19942;-73
2022/10/17 10:09:29;;;;;;;;;;;22.80;99.90;;;;;;5087197;28;20055;-71
2022/10/17 10:11:55;;;;;;;;;;;22.70;99.90;;;;;;5076924;28;20317;-71
2022/10/17 10:14:23;;;;;;;;;;;22.50;99.90;;;;;;5089437;28;20466;-72
2022/10/17 10:16:49;;;;;;;;;;;22.60;99.90;;;;;;5090156;28;19923;-70
2022/10/17 10:19:31;;;;;;;;;;;22.70;99.90;;;;;;5088551;28;19912;-69
2022/10/17 10:21:59;;;;;;;;;;;22.80;99.90;;;;;;5092169;28;19912;-70
2022/10/17 10:24:25;;;;;;;;;;;22.80;99.90;;;;;;5088501;28;19928;-69
2022/10/17 10:26:53;;;;;;;;;;;22.60;99.90;;;;;;5077739;28;20369;-70
2022/10/17 10:29:25;;;;;;;;;;;22.40;99.90;;;;;;5087467;28;19965;-71
2022/10/17 10:31:52;;;;;;;;;;;22.20;99.90;;;;;;5091994;28;20384;-70
2022/10/17 10:34:20;;;;;;;;;;;22.30;99.90;;;;;;5077553;28;19974;-73
2022/10/17 10:36:48;;;;;;;;;;;22.20;99.90;;;;;;5091075;28;19916;-74
2022/10/17 10:39:23;;;;;;;;;;;22.20;99.90;;;;;;5075233;28;19913;-72
2022/10/17 10:41:48;;;;;;;;;;;22.10;99.90;;;;;;5078272;28;19912;-72
2022/10/17 10:44:15;;;;;;;;;;;22.00;99.90;;;;;;5088641;28;19996;-72
2022/10/17 10:46:41;;;;;;;;;;;22.00;99.90;;;;;;5082744;28;19920;-74
2022/10/17 10:49:26;;;;;;;;;;;22.10;99.90;;;;;;5083229;28;19931;-72
2022/10/17 10:51:51;;;;;;;;;;;22.20;99.90;;;;;;5079024;28;20381;-75
2022/10/17 10:54:20;;;;;;;;;;;22.10;99.90;;;;;;5082412;28;19924;-72
2022/10/17 10:56:49;;;;;;;;;;;22.20;99.90;;;;;;5088375;28;20400;-72
2022/10/17 10:59:19;;;;;;;;;;;22.30;99.90;;;;;;5090958;28;19919;-71
2022/10/17 11:02:05;;;;;;;;;;;22.20;99.90;;;;;;5093086;28;19947;-70
2022/10/17 11:04:50;;;;;;;;;;;22.20;99.90;;;;;;5089813;28;19912;-73
2022/10/17 11:07:21;;;;;;;;;;;22.10;99.90;;;;;;5084051;28;20324;-71
2022/10/17 11:09:55;;;;;;;;;;;22.00;99.90;;;;;;5089476;28;19919;-73
2022/10/17 11:12:23;;;;;;;;;;;21.90;99.90;;;;;;5086597;28;19917;-70
2022/10/17 11:15:09;;;;;;;;;;;21.80;99.90;;;;;;5082232;28;19912;-68
2022/10/17 11:17:39;;;;;;;;;;;21.80;99.90;;;;;;5085402;28;19932;-70
2022/10/17 11:22:46;;;;;;;;;;;22.00;99.90;;;;;;5133232;27;19916;-68
2022/10/17 11:25:23;;;;;;;;;;;22.20;99.90;;;;;;5085543;28;19916;-70
2022/10/17 11:27:49;;;;;;;;;;;22.00;99.90;;;;;;5101399;28;20285;-69
2022/10/17 11:30:15;;;;;;;;;;;21.80;99.90;;;;;;5086948;28;20015;-72
2022/10/17 11:32:49;;;;;;;;;;;21.70;99.90;;;;;;5109483;28;19935;-71
2022/10/17 11:35:26;;;;;;;;;;;21.60;99.90;;;;;;5086294;28;19919;-71
2022/10/17 11:37:56;;;;;;;;;;;21.50;99.90;;;;;;5091122;28;19923;-71
2022/10/17 11:40:33;;;;;;;;;;;21.60;99.90;;;;;;5104431;28;19913;-70
2022/10/17 11:43:02;;;;;;;;;;;21.60;99.90;;;;;;5086417;28;20219;-66
2022/10/17 11:45:32;;;;;;;;;;;21.60;99.90;;;;;;5096320;28;19917;-72
2022/10/17 11:48:01;;;;;;;;;;;21.60;99.90;;;;;;5088513;28;20331;-72
2022/10/17 11:50:29;;;;;;;;;;;21.40;99.90;;;;;;5081695;28;19923;-71
2022/10/17 11:52:57;;;;;;;;;;;21.40;99.90;;;;;;5103575;27;19953;-72
2022/10/17 11:55:24;;;;;;;;;;;21.40;99.90;;;;;;5088610;28;20413;-76
2022/10/17 11:57:57;;;;;;;;;;;21.30;99.90;;;;;;5071350;28;20002;-73
2022/10/17 12:00:29;;;;;;;;;;;21.30;99.90;;;;;;5088869;28;19913;-72
2022/10/17 12:03:06;;;;;;;;;;;21.30;99.90;;;;;;5090780;28;19912;-72
2022/10/17 12:05:44;;;;;;;;;;;21.30;99.90;;;;;;5097857;28;19915;-72
2022/10/17 12:08:16;;;;;;;;;;;21.30;99.90;;;;;;5100500;28;19957;-72
2022/10/17 12:10:51;;;;;;;;;;;21.30;99.90;;;;;;5096804;28;20027;-71
2022/10/17 12:13:34;;;;;;;;;;;21.30;99.90;;;;;;5087393;28;19949;-71
2022/10/17 12:16:20;;;;;;;;;;;21.30;99.90;;;;;;5089199;28;19916;-71
2022/10/17 12:18:47;;;;;;;;;;;21.30;99.90;;;;;;5089337;28;19962;-71
2022/10/17 12:21:12;;;;;;;;;;;21.20;99.90;;;;;;5088889;28;19920;-73
2022/10/17 12:23:39;;;;;;;;;;;21.30;99.90;;;;;;5100518;28;19919;-73
2022/10/17 12:26:08;;;;;;;;;;;21.30;99.90;;;;;;5068449;28;19917;-72
2022/10/17 12:31:20;;;;;;;;;;;21.30;99.90;;;;;;5123944;27;20363;-71
2022/10/17 12:33:48;;;;;;;;;;;21.30;99.90;;;;;;5006687;27;19963;-74
2022/10/17 12:46:57;;;;;;;;;;;21.20;99.90;;;;;;5118966;27;20366;-72
2022/10/17 12:49:34;;;;;;;;;;;21.20;99.90;;;;;;5088580;28;20515;-71
2022/10/17 12:52:05;;;;;;;;;;;21.20;99.90;;;;;;5120384;27;19920;-70
2022/10/17 12:54:36;;;;;;;;;;;21.20;99.90;;;;;;5087217;28;20373;-72
2022/10/17 12:57:12;;;;;;;;;;;21.20;99.90;;;;;;5096155;28;19962;-71
2022/10/17 12:59:37;;;;;;;;;;;21.30;99.90;;;;;;5091675;28;20293;-70
2022/10/17 13:02:03;;;;;;;;;;;21.40;99.90;;;;;;5088653;28;19913;-70
2022/10/17 13:04:29;;;;;;;;;;;21.60;99.90;;;;;;5114139;27;20335;-70
2022/10/17 13:06:57;;;;;;;;;;;21.70;99.90;;;;;;5119400;28;19912;-68
2022/10/17 13:09:31;;;;;;;;;;;21.70;99.90;;;;;;5089118;28;20251;-69
2022/10/17 13:11:58;;;;;;;;;;;21.60;99.90;;;;;;5091171;28;19977;-68
2022/10/17 13:14:24;;;;;;;;;;;21.50;99.90;;;;;;5085481;28;19965;-68
2022/10/17 13:16:56;;;;;;;;;;;21.50;99.90;;;;;;5085955;28;19912;-71
2022/10/17 13:19:23;;;;;;;;;;;21.40;99.90;;;;;;5086113;28;19935;-72
2022/10/17 13:21:50;;;;;;;;;;;21.50;99.90;;;;;;5089284;28;19912;-72
2022/10/17 13:24:19;;;;;;;;;;;21.50;99.90;;;;;;5088540;28;20006;-73
2022/10/17 13:26:45;;;;;;;;;;;21.50;99.90;;;;;;5117305;27;19996;-75
2022/10/17 13:29:12;;;;;;;;;;;21.50;99.90;;;;;;5090229;28;20357;-75
2022/10/17 13:31:38;;;;;;;;;;;21.40;99.90;;;;;;5087706;28;19916;-74
2022/10/17 13:34:05;;;;;;;;;;;21.30;99.90;;;;;;5088749;28;19967;-74
2022/10/17 13:36:33;;;;;;;;;;;21.30;99.90;;;;;;5085591;28;19940;-76
2022/10/17 13:38:59;;;;;;;;;;;21.30;99.90;;;;;;5087167;28;19916;-74
2022/10/17 13:41:27;;;;;;;;;;;21.30;99.90;;;;;;5084641;28;19954;-75
2022/10/17 13:43:53;;;;;;;;;;;21.30;99.90;;;;;;5116475;28;20378;-77
2022/10/17 13:46:24;;;;;;;;;;;21.30;99.90;;;;;;5088002;28;19920;-75
2022/10/17 13:48:49;;;;;;;;;;;21.20;99.90;;;;;;5087415;28;19912;-75
2022/10/17 13:51:15;;;;;;;;;;;21.20;99.90;;;;;;5087401;28;20006;-75
2022/10/17 13:53:43;;;;;;;;;;;21.20;99.90;;;;;;5090265;28;19919;-78
2022/10/17 13:58:56;;;;;;;;;;;21.00;99.90;;;;;;5120967;22;19924;-78
2022/10/17 14:01:23;;;;;;;;;;;21.10;99.90;;;;;;5071494;28;19913;-78
2022/10/17 14:03:48;;;;;;;;;;;21.10;99.90;;;;;;5073609;28;20399;-77
2022/10/17 14:06:18;;;;;;;;;;;21.10;99.90;;;;;;5072032;28;21014;-82
2022/10/17 14:09:01;;;;;;;;;;;21.20;99.90;;;;;;5072854;28;19920;-78
2022/10/17 14:11:43;;;;;;;;;;;21.20;99.90;;;;;;5067862;28;19938;-78
2022/10/17 14:14:24;;;;;;;;;;;21.10;99.90;;;;;;5070911;28;19941;-79
2022/10/17 14:16:50;;;;;;;;;;;21.00;99.90;;;;;;5077917;28;20361;-78
2022/10/17 14:19:24;;;;;;;;;;;20.90;99.90;;;;;;5054357;28;19951;-77
2022/10/17 14:21:55;;;;;;;;;;;20.90;99.90;;;;;;5083045;28;19912;-78
2022/10/17 14:27:01;;;;;;;;;;;20.90;99.90;;;;;;5066769;22;19927;-73
2022/10/17 14:29:29;;;;;;;;;;;20.80;99.90;;;;;;5048285;28;19915;-72
2022/10/17 14:32:03;;;;;;;;;;;20.90;99.90;;;;;;4946424;28;19915;-74
2022/10/17 14:34:31;;;;;;;;;;;21.00;99.90;;;;;;4945534;29;20374;-71
2022/10/17 14:36:56;;;;;;;;;;;21.00;99.90;;;;;;4948710;29;20288;-72
2022/10/17 14:39:23;;;;;;;;;;;21.00;99.90;;;;;;5044100;28;19916;-72
2022/10/17 14:41:49;;;;;;;;;;;21.00;99.90;;;;;;4946307;29;19922;-73
2022/10/17 14:44:18;;;;;;;;;;;20.90;99.90;;;;;;4948156;29;19957;-72
2022/10/17 14:46:44;;;;;;;;;;;20.80;99.90;;;;;;4949037;28;19915;-71
2022/10/17 14:49:23;;;;;;;;;;;20.90;99.90;;;;;;4930249;29;19961;-72
2022/10/17 14:52:08;;;;;;;;;;;20.80;99.90;;;;;;4930269;29;19911;-73
2022/10/17 14:54:34;;;;;;;;;;;20.70;99.90;;;;;;4930266;29;19915;-72